sensor_id;sensor_type;location;lat;lon;timestamp;P1;durP1;ratioP1;P2;durP2;ratioP2
44358;SDS011;30077;52.474;13.326;2024-02-21T00:05:34;27.08;;;8.60;;
44358;SDS011;30077;52.474;13.326;2024-02-21T00:15:35;37.93;;;16.87;;
44358;SDS011;30077;52.474;13.326;2024-02-21T00:25:35;34.30;;;9.75;;
44358;SDS011;30077;52.474;13.326;2024-02-21T00:35:36;28.65;;;8.57;;
44358;SDS011;30077;52.474;13.326;2024-02-21T00:45:37;27.23;;;8.70;;
44358;SDS011;30077;52.474;13.326;2024-02-21T00:55:38;27.20;;;7.70;;
44358;SDS011;30077;52.474;13.326;2024-02-21T01:05:40;25.90;;;8.27;;
44358;SDS011;30077;52.474;13.326;2024-02-21T01:15:41;19.90;;;6.80;;
44358;SDS011;30077;52.474;13.326;2024-02-21T01:25:41;20.20;;;6.67;;
44358;SDS011;30077;52.474;13.326;2024-02-21T01:35:42;27.00;;;7.57;;
44358;SDS011;30077;52.474;13.326;2024-02-21T01:45:50;21.95;;;7.18;;
44358;SDS011;30077;52.474;13.326;2024-02-21T01:55:52;20.65;;;7.32;;
44358;SDS011;30077;52.474;13.326;2024-02-21T02:05:53;22.55;;;7.15;;
44358;SDS011;30077;52.474;13.326;2024-02-21T02:15:54;21.98;;;6.85;;
44358;SDS011;30077;52.474;13.326;2024-02-21T02:25:55;19.90;;;7.47;;
44358;SDS011;30077;52.474;13.326;2024-02-21T02:35:56;22.23;;;6.97;;
44358;SDS011;30077;52.474;13.326;2024-02-21T02:45:57;22.90;;;7.55;;
44358;SDS011;30077;52.474;13.326;2024-02-21T02:55:58;21.83;;;8.38;;
44358;SDS011;30077;52.474;13.326;2024-02-21T03:05:59;22.20;;;8.83;;
44358;SDS011;30077;52.474;13.326;2024-02-21T03:15:59;28.80;;;8.77;;
44358;SDS011;30077;52.474;13.326;2024-02-21T03:26:00;26.27;;;8.23;;
44358;SDS011;30077;52.474;13.326;2024-02-21T03:36:01;36.13;;;8.23;;
44358;SDS011;30077;52.474;13.326;2024-02-21T03:46:01;25.38;;;7.93;;
44358;SDS011;30077;52.474;13.326;2024-02-21T03:56:02;27.48;;;10.52;;
44358;SDS011;30077;52.474;13.326;2024-02-21T04:06:04;25.25;;;9.30;;
44358;SDS011;30077;52.474;13.326;2024-02-21T04:16:05;37.35;;;10.30;;
44358;SDS011;30077;52.474;13.326;2024-02-21T04:26:06;24.95;;;9.20;;
44358;SDS011;30077;52.474;13.326;2024-02-21T04:36:06;22.52;;;8.98;;
44358;SDS011;30077;52.474;13.326;2024-02-21T04:46:07;30.90;;;9.32;;
44358;SDS011;30077;52.474;13.326;2024-02-21T04:56:08;24.30;;;9.43;;
44358;SDS011;30077;52.474;13.326;2024-02-21T05:06:08;26.48;;;8.07;;
44358;SDS011;30077;52.474;13.326;2024-02-21T05:16:09;25.25;;;9.13;;
44358;SDS011;30077;52.474;13.326;2024-02-21T05:26:10;23.63;;;8.73;;
44358;SDS011;30077;52.474;13.326;2024-02-21T05:36:11;22.67;;;9.67;;
44358;SDS011;30077;52.474;13.326;2024-02-21T05:46:12;28.30;;;11.15;;
44358;SDS011;30077;52.474;13.326;2024-02-21T05:56:13;30.43;;;10.50;;
44358;SDS011;30077;52.474;13.326;2024-02-21T06:06:14;24.83;;;10.23;;
44358;SDS011;30077;52.474;13.326;2024-02-21T06:16:15;23.33;;;9.73;;
44358;SDS011;30077;52.474;13.326;2024-02-21T06:26:15;33.27;;;11.03;;
44358;SDS011;30077;52.474;13.326;2024-02-21T06:36:17;29.95;;;11.32;;
44358;SDS011;30077;52.474;13.326;2024-02-21T06:46:24;27.33;;;11.47;;
44358;SDS011;30077;52.474;13.326;2024-02-21T06:56:26;24.70;;;10.50;;
44358;SDS011;30077;52.474;13.326;2024-02-21T07:06:28;28.02;;;10.52;;
44358;SDS011;30077;52.474;13.326;2024-02-21T07:16:30;28.20;;;11.13;;
44358;SDS011;30077;52.474;13.326;2024-02-21T07:26:32;29.38;;;11.25;;
44358;SDS011;30077;52.474;13.326;2024-02-21T07:36:33;24.73;;;11.50;;
44358;SDS011;30077;52.474;13.326;2024-02-21T07:46:34;30.60;;;10.63;;
44358;SDS011;30077;52.474;13.326;2024-02-21T07:56:35;20.43;;;9.27;;
44358;SDS011;30077;52.474;13.326;2024-02-21T08:06:36;24.58;;;8.60;;
44358;SDS011;30077;52.474;13.326;2024-02-21T08:16:37;22.55;;;9.27;;
44358;SDS011;30077;52.474;13.326;2024-02-21T08:26:39;34.43;;;12.17;;
44358;SDS011;30077;52.474;13.326;2024-02-21T08:36:46;21.40;;;10.30;;
44358;SDS011;30077;52.474;13.326;2024-02-21T08:46:47;31.25;;;10.27;;
44358;SDS011;30077;52.474;13.326;2024-02-21T08:56:48;30.57;;;11.43;;
44358;SDS011;30077;52.474;13.326;2024-02-21T09:06:49;28.30;;;12.13;;
44358;SDS011;30077;52.474;13.326;2024-02-21T09:16:49;23.13;;;10.03;;
44358;SDS011;30077;52.474;13.326;2024-02-21T09:26:50;23.00;;;11.43;;
44358;SDS011;30077;52.474;13.326;2024-02-21T09:36:51;25.95;;;11.00;;
44358;SDS011;30077;52.474;13.326;2024-02-21T09:46:54;30.60;;;12.38;;
44358;SDS011;30077;52.474;13.326;2024-02-21T09:57:04;19.20;;;11.40;;
44358;SDS011;30077;52.474;13.326;2024-02-21T10:07:06;23.65;;;11.38;;
44358;SDS011;30077;52.474;13.326;2024-02-21T10:17:08;24.02;;;10.82;;
44358;SDS011;30077;52.474;13.326;2024-02-21T10:27:18;24.45;;;10.60;;
44358;SDS011;30077;52.474;13.326;2024-02-21T10:37:19;23.43;;;10.70;;
44358;SDS011;30077;52.474;13.326;2024-02-21T10:47:21;20.42;;;10.60;;
44358;SDS011;30077;52.474;13.326;2024-02-21T10:57:23;18.77;;;11.15;;
44358;SDS011;30077;52.474;13.326;2024-02-21T11:07:27;21.40;;;9.65;;
44358;SDS011;30077;52.474;13.326;2024-02-21T11:17:28;24.75;;;11.60;;
44358;SDS011;30077;52.474;13.326;2024-02-21T11:27:33;18.37;;;9.40;;
44358;SDS011;30077;52.474;13.326;2024-02-21T11:37:34;20.50;;;11.20;;
44358;SDS011;30077;52.474;13.326;2024-02-21T11:47:39;13.85;;;8.05;;
44358;SDS011;30077;52.474;13.326;2024-02-21T11:57:42;16.35;;;8.20;;
44358;SDS011;30077;52.474;13.326;2024-02-21T12:07:43;12.48;;;6.72;;
44358;SDS011;30077;52.474;13.326;2024-02-21T12:17:45;16.65;;;7.25;;
44358;SDS011;30077;52.474;13.326;2024-02-21T12:27:46;12.30;;;7.53;;
44358;SDS011;30077;52.474;13.326;2024-02-21T12:37:47;13.55;;;7.03;;
44358;SDS011;30077;52.474;13.326;2024-02-21T12:47:47;10.37;;;5.47;;
44358;SDS011;30077;52.474;13.326;2024-02-21T12:57:48;7.63;;;4.80;;
44358;SDS011;30077;52.474;13.326;2024-02-21T13:07:49;10.07;;;5.00;;
44358;SDS011;30077;52.474;13.326;2024-02-21T13:17:49;8.93;;;4.55;;
44358;SDS011;30077;52.474;13.326;2024-02-21T13:27:50;7.10;;;4.80;;
44358;SDS011;30077;52.474;13.326;2024-02-21T13:37:51;19.93;;;10.67;;
44358;SDS011;30077;52.474;13.326;2024-02-21T13:47:51;14.50;;;5.53;;
44358;SDS011;30077;52.474;13.326;2024-02-21T13:57:52;12.23;;;5.23;;
44358;SDS011;30077;52.474;13.326;2024-02-21T14:07:53;10.13;;;4.15;;
44358;SDS011;30077;52.474;13.326;2024-02-21T14:17:54;8.68;;;4.30;;
44358;SDS011;30077;52.474;13.326;2024-02-21T14:27:56;9.75;;;4.13;;
44358;SDS011;30077;52.474;13.326;2024-02-21T14:37:56;9.07;;;4.13;;
44358;SDS011;30077;52.474;13.326;2024-02-21T14:48:00;14.95;;;5.32;;
44358;SDS011;30077;52.474;13.326;2024-02-21T14:58:02;16.60;;;6.47;;
44358;SDS011;30077;52.474;13.326;2024-02-21T15:08:04;8.52;;;4.05;;
44358;SDS011;30077;52.474;13.326;2024-02-21T15:18:06;7.97;;;4.07;;
44358;SDS011;30077;52.474;13.326;2024-02-21T15:28:08;12.13;;;4.63;;
44358;SDS011;30077;52.474;13.326;2024-02-21T15:38:09;10.68;;;4.93;;
44358;SDS011;30077;52.474;13.326;2024-02-21T15:48:09;15.40;;;5.57;;
44358;SDS011;30077;52.474;13.326;2024-02-21T15:58:10;10.77;;;5.43;;
44358;SDS011;30077;52.474;13.326;2024-02-21T16:08:11;15.97;;;6.03;;
44358;SDS011;30077;52.474;13.326;2024-02-21T16:18:11;14.30;;;6.43;;
44358;SDS011;30077;52.474;13.326;2024-02-21T16:28:13;9.98;;;5.82;;
44358;SDS011;30077;52.474;13.326;2024-02-21T16:38:14;17.27;;;6.18;;
44358;SDS011;30077;52.474;13.326;2024-02-21T16:48:16;13.10;;;5.35;;
44358;SDS011;30077;52.474;13.326;2024-02-21T16:58:17;20.92;;;12.30;;
44358;SDS011;30077;52.474;13.326;2024-02-21T17:08:17;9.10;;;5.63;;
44358;SDS011;30077;52.474;13.326;2024-02-21T17:18:19;15.13;;;5.83;;
44358;SDS011;30077;52.474;13.326;2024-02-21T17:28:20;15.43;;;6.10;;
44358;SDS011;30077;52.474;13.326;2024-02-21T17:38:21;15.40;;;6.88;;
44358;SDS011;30077;52.474;13.326;2024-02-21T17:48:25;11.60;;;5.27;;
44358;SDS011;30077;52.474;13.326;2024-02-21T17:58:27;11.85;;;5.57;;
44358;SDS011;30077;52.474;13.326;2024-02-21T18:08:28;12.27;;;6.03;;
44358;SDS011;30077;52.474;13.326;2024-02-21T18:18:29;14.80;;;7.23;;
44358;SDS011;30077;52.474;13.326;2024-02-21T18:28:30;19.88;;;7.57;;
44358;SDS011;30077;52.474;13.326;2024-02-21T18:38:31;19.83;;;7.97;;
44358;SDS011;30077;52.474;13.326;2024-02-21T18:48:33;18.60;;;7.78;;
44358;SDS011;30077;52.474;13.326;2024-02-21T18:58:34;16.47;;;7.63;;
44358;SDS011;30077;52.474;13.326;2024-02-21T19:08:35;12.00;;;6.47;;
44358;SDS011;30077;52.474;13.326;2024-02-21T19:18:36;14.93;;;7.45;;
44358;SDS011;30077;52.474;13.326;2024-02-21T19:28:38;13.98;;;6.45;;
44358;SDS011;30077;52.474;13.326;2024-02-21T19:38:41;13.43;;;6.45;;
44358;SDS011;30077;52.474;13.326;2024-02-21T19:48:41;16.53;;;7.83;;
44358;SDS011;30077;52.474;13.326;2024-02-21T19:58:42;10.77;;;7.00;;
44358;SDS011;30077;52.474;13.326;2024-02-21T20:08:44;12.80;;;6.47;;
44358;SDS011;30077;52.474;13.326;2024-02-21T20:18:45;14.00;;;6.00;;
44358;SDS011;30077;52.474;13.326;2024-02-21T20:28:45;12.82;;;6.35;;
44358;SDS011;30077;52.474;13.326;2024-02-21T20:38:46;15.38;;;6.75;;
44358;SDS011;30077;52.474;13.326;2024-02-21T20:48:49;15.15;;;6.85;;
44358;SDS011;30077;52.474;13.326;2024-02-21T20:58:57;10.63;;;5.82;;
44358;SDS011;30077;52.474;13.326;2024-02-21T21:08:57;8.60;;;5.22;;
44358;SDS011;30077;52.474;13.326;2024-02-21T21:18:58;10.17;;;5.10;;
44358;SDS011;30077;52.474;13.326;2024-02-21T21:29:00;13.85;;;6.50;;
44358;SDS011;30077;52.474;13.326;2024-02-21T21:39:03;14.30;;;5.63;;
44358;SDS011;30077;52.474;13.326;2024-02-21T21:49:06;12.95;;;5.85;;
44358;SDS011;30077;52.474;13.326;2024-02-21T21:59:07;9.30;;;5.03;;
44358;SDS011;30077;52.474;13.326;2024-02-21T22:09:11;12.77;;;4.87;;
44358;SDS011;30077;52.474;13.326;2024-02-21T22:19:13;7.95;;;4.13;;
44358;SDS011;30077;52.474;13.326;2024-02-21T22:29:14;37.65;;;19.70;;
44358;SDS011;30077;52.474;13.326;2024-02-21T22:39:15;10.90;;;4.32;;
44358;SDS011;30077;52.474;13.326;2024-02-21T22:49:16;8.30;;;3.85;;
44358;SDS011;30077;52.474;13.326;2024-02-21T22:59:17;9.40;;;4.32;;
44358;SDS011;30077;52.474;13.326;2024-02-21T23:09:18;11.87;;;3.83;;
44358;SDS011;30077;52.474;13.326;2024-02-21T23:19:18;11.13;;;3.95;;
44358;SDS011;30077;52.474;13.326;2024-02-21T23:29:19;12.38;;;4.07;;
44358;SDS011;30077;52.474;13.326;2024-02-21T23:39:22;9.98;;;4.35;;
44358;SDS011;30077;52.474;13.326;2024-02-21T23:49:23;9.93;;;3.85;;
44358;SDS011;30077;52.474;13.326;2024-02-21T23:59:26;14.77;;;5.90;;
